sensor_id;sensor_type;location;lat;lon;timestamp;P1;durP1;ratioP1;P2;durP2;ratioP2
73672;SDS011;61972;19.480;-99.240;2022-10-16T00:02:14;8.48;;;5.60;;
73672;SDS011;61972;19.480;-99.240;2022-10-16T00:04:40;8.83;;;5.30;;
73672;SDS011;61972;19.480;-99.240;2022-10-16T00:07:06;12.82;;;5.07;;
73672;SDS011;61972;19.480;-99.240;2022-10-16T00:09:32;9.13;;;5.30;;
73672;SDS011;61972;19.480;-99.240;2022-10-16T00:11:58;7.10;;;5.20;;
73672;SDS011;61972;19.480;-99.240;2022-10-16T00:14:24;6.38;;;4.80;;
73672;SDS011;61972;19.480;-99.240;2022-10-16T00:16:50;7.90;;;5.37;;
73672;SDS011;61972;19.480;-99.240;2022-10-16T00:19:17;9.02;;;5.50;;
73672;SDS011;61972;19.480;-99.240;2022-10-16T00:21:43;13.68;;;5.65;;
73672;SDS011;61972;19.480;-99.240;2022-10-16T00:24:09;8.23;;;5.00;;
73672;SDS011;61972;19.480;-99.240;2022-10-16T00:26:36;8.85;;;5.55;;
73672;SDS011;61972;19.480;-99.240;2022-10-16T00:29:03;8.00;;;5.60;;
73672;SDS011;61972;19.480;-99.240;2022-10-16T00:31:30;7.65;;;5.25;;
73672;SDS011;61972;19.480;-99.240;2022-10-16T00:33:56;9.52;;;5.60;;
73672;SDS011;61972;19.480;-99.240;2022-10-16T00:36:23;9.02;;;5.40;;
73672;SDS011;61972;19.480;-99.240;2022-10-16T00:38:51;7.93;;;5.35;;
73672;SDS011;61972;19.480;-99.240;2022-10-16T00:41:19;7.13;;;5.13;;
73672;SDS011;61972;19.480;-99.240;2022-10-16T00:43:48;9.32;;;5.38;;
73672;SDS011;61972;19.480;-99.240;2022-10-16T00:46:27;9.30;;;5.63;;
73672;SDS011;61972;19.480;-99.240;2022-10-16T00:49:10;9.07;;;5.32;;
73672;SDS011;61972;19.480;-99.240;2022-10-16T00:51:40;7.90;;;5.05;;
73672;SDS011;61972;19.480;-99.240;2022-10-16T00:54:10;6.87;;;4.70;;
73672;SDS011;61972;19.480;-99.240;2022-10-16T00:56:58;10.57;;;4.78;;
73672;SDS011;61972;19.480;-99.240;2022-10-16T00:59:28;8.82;;;4.50;;
73672;SDS011;61972;19.480;-99.240;2022-10-16T01:01:56;8.52;;;4.45;;
73672;SDS011;61972;19.480;-99.240;2022-10-16T01:04:24;7.57;;;4.25;;
73672;SDS011;61972;19.480;-99.240;2022-10-16T01:07:06;8.17;;;4.20;;
73672;SDS011;61972;19.480;-99.240;2022-10-16T01:28:39;7.88;;;4.05;;
73672;SDS011;61972;19.480;-99.240;2022-10-16T01:31:06;8.20;;;4.28;;
73672;SDS011;61972;19.480;-99.240;2022-10-16T01:33:42;8.57;;;4.50;;
73672;SDS011;61972;19.480;-99.240;2022-10-16T01:36:18;8.60;;;4.20;;
73672;SDS011;61972;19.480;-99.240;2022-10-16T01:38:51;9.10;;;4.50;;
73672;SDS011;61972;19.480;-99.240;2022-10-16T01:41:24;8.68;;;4.25;;
73672;SDS011;61972;19.480;-99.240;2022-10-16T01:44:00;8.00;;;4.30;;
73672;SDS011;61972;19.480;-99.240;2022-10-16T01:46:36;11.63;;;4.30;;
73672;SDS011;61972;19.480;-99.240;2022-10-16T01:49:05;8.35;;;4.30;;
73672;SDS011;61972;19.480;-99.240;2022-10-16T01:51:33;9.73;;;4.30;;
73672;SDS011;61972;19.480;-99.240;2022-10-16T01:54:01;8.25;;;4.03;;
73672;SDS011;61972;19.480;-99.240;2022-10-16T01:56:29;8.60;;;4.38;;
73672;SDS011;61972;19.480;-99.240;2022-10-16T01:58:57;14.03;;;4.23;;
73672;SDS011;61972;19.480;-99.240;2022-10-16T02:01:37;13.05;;;3.80;;
73672;SDS011;61972;19.480;-99.240;2022-10-16T02:04:11;8.48;;;4.18;;
73672;SDS011;61972;19.480;-99.240;2022-10-16T02:06:42;8.77;;;4.00;;
73672;SDS011;61972;19.480;-99.240;2022-10-16T02:09:09;6.47;;;4.20;;
73672;SDS011;61972;19.480;-99.240;2022-10-16T02:11:35;8.90;;;4.30;;
73672;SDS011;61972;19.480;-99.240;2022-10-16T02:14:03;10.50;;;4.20;;
73672;SDS011;61972;19.480;-99.240;2022-10-16T02:16:38;9.13;;;4.55;;
73672;SDS011;61972;19.480;-99.240;2022-10-16T02:19:08;10.98;;;4.00;;
73672;SDS011;61972;19.480;-99.240;2022-10-16T02:24:32;8.90;;;4.20;;
73672;SDS011;61972;19.480;-99.240;2022-10-16T02:27:11;8.57;;;4.20;;
73672;SDS011;61972;19.480;-99.240;2022-10-16T02:29:59;11.45;;;4.40;;
73672;SDS011;61972;19.480;-99.240;2022-10-16T02:32:36;8.88;;;4.65;;
73672;SDS011;61972;19.480;-99.240;2022-10-16T02:35:04;10.52;;;4.60;;
73672;SDS011;61972;19.480;-99.240;2022-10-16T02:37:32;7.90;;;3.90;;
73672;SDS011;61972;19.480;-99.240;2022-10-16T02:39:58;6.60;;;4.10;;
73672;SDS011;61972;19.480;-99.240;2022-10-16T02:42:29;8.65;;;3.65;;
73672;SDS011;61972;19.480;-99.240;2022-10-16T02:44:59;9.20;;;4.40;;
73672;SDS011;61972;19.480;-99.240;2022-10-16T02:47:25;8.88;;;4.95;;
73672;SDS011;61972;19.480;-99.240;2022-10-16T02:49:52;9.97;;;4.50;;
73672;SDS011;61972;19.480;-99.240;2022-10-16T02:52:18;8.82;;;4.45;;
73672;SDS011;61972;19.480;-99.240;2022-10-16T02:54:44;7.68;;;3.97;;
73672;SDS011;61972;19.480;-99.240;2022-10-16T02:57:10;8.13;;;4.28;;
73672;SDS011;61972;19.480;-99.240;2022-10-16T02:59:37;9.23;;;4.22;;
73672;SDS011;61972;19.480;-99.240;2022-10-16T03:02:03;10.27;;;4.87;;
73672;SDS011;61972;19.480;-99.240;2022-10-16T03:04:29;8.95;;;4.47;;
73672;SDS011;61972;19.480;-99.240;2022-10-16T03:06:55;12.43;;;4.82;;
73672;SDS011;61972;19.480;-99.240;2022-10-16T03:09:21;8.32;;;4.63;;
73672;SDS011;61972;19.480;-99.240;2022-10-16T03:11:47;6.20;;;4.10;;
73672;SDS011;61972;19.480;-99.240;2022-10-16T03:14:13;10.57;;;5.27;;
73672;SDS011;61972;19.480;-99.240;2022-10-16T03:16:39;9.38;;;4.40;;
73672;SDS011;61972;19.480;-99.240;2022-10-16T03:19:05;8.35;;;4.57;;
73672;SDS011;61972;19.480;-99.240;2022-10-16T03:21:31;10.27;;;5.03;;
73672;SDS011;61972;19.480;-99.240;2022-10-16T03:23:58;9.82;;;4.80;;
73672;SDS011;61972;19.480;-99.240;2022-10-16T03:26:24;7.50;;;4.57;;
73672;SDS011;61972;19.480;-99.240;2022-10-16T03:28:50;8.00;;;4.45;;
73672;SDS011;61972;19.480;-99.240;2022-10-16T03:31:16;9.15;;;5.05;;
73672;SDS011;61972;19.480;-99.240;2022-10-16T03:33:42;9.25;;;4.95;;
73672;SDS011;61972;19.480;-99.240;2022-10-16T03:36:08;11.00;;;5.25;;
73672;SDS011;61972;19.480;-99.240;2022-10-16T03:38:34;7.87;;;4.80;;
73672;SDS011;61972;19.480;-99.240;2022-10-16T03:41:00;7.82;;;5.15;;
73672;SDS011;61972;19.480;-99.240;2022-10-16T03:43:26;8.07;;;4.93;;
73672;SDS011;61972;19.480;-99.240;2022-10-16T03:45:52;8.13;;;4.93;;
73672;SDS011;61972;19.480;-99.240;2022-10-16T03:48:18;11.65;;;5.47;;
73672;SDS011;61972;19.480;-99.240;2022-10-16T03:50:45;9.90;;;5.40;;
73672;SDS011;61972;19.480;-99.240;2022-10-16T03:53:13;7.90;;;5.18;;
73672;SDS011;61972;19.480;-99.240;2022-10-16T03:55:43;10.30;;;5.60;;
73672;SDS011;61972;19.480;-99.240;2022-10-16T03:58:09;8.75;;;5.22;;
73672;SDS011;61972;19.480;-99.240;2022-10-16T04:00:39;10.70;;;5.68;;
73672;SDS011;61972;19.480;-99.240;2022-10-16T04:03:09;8.53;;;5.27;;
73672;SDS011;61972;19.480;-99.240;2022-10-16T04:05:36;9.65;;;5.75;;
73672;SDS011;61972;19.480;-99.240;2022-10-16T04:08:02;8.77;;;5.13;;
73672;SDS011;61972;19.480;-99.240;2022-10-16T04:10:29;9.07;;;5.90;;
73672;SDS011;61972;19.480;-99.240;2022-10-16T04:12:55;8.43;;;5.30;;
73672;SDS011;61972;19.480;-99.240;2022-10-16T04:15:24;7.53;;;5.47;;
73672;SDS011;61972;19.480;-99.240;2022-10-16T04:17:51;9.23;;;5.82;;
73672;SDS011;61972;19.480;-99.240;2022-10-16T04:20:17;9.27;;;5.32;;
73672;SDS011;61972;19.480;-99.240;2022-10-16T04:22:44;8.23;;;5.45;;
73672;SDS011;61972;19.480;-99.240;2022-10-16T04:25:10;8.10;;;4.97;;
73672;SDS011;61972;19.480;-99.240;2022-10-16T04:27:37;7.73;;;5.50;;
73672;SDS011;61972;19.480;-99.240;2022-10-16T04:30:04;8.65;;;5.60;;
73672;SDS011;61972;19.480;-99.240;2022-10-16T04:32:30;7.95;;;5.25;;
73672;SDS011;61972;19.480;-99.240;2022-10-16T04:34:56;9.23;;;5.78;;
73672;SDS011;61972;19.480;-99.240;2022-10-16T04:37:23;7.57;;;5.20;;
73672;SDS011;61972;19.480;-99.240;2022-10-16T04:39:50;7.00;;;5.40;;
73672;SDS011;61972;19.480;-99.240;2022-10-16T04:42:17;6.45;;;5.07;;
73672;SDS011;61972;19.480;-99.240;2022-10-16T04:44:43;8.52;;;5.00;;
73672;SDS011;61972;19.480;-99.240;2022-10-16T04:47:09;7.45;;;4.90;;
73672;SDS011;61972;19.480;-99.240;2022-10-16T04:49:35;9.65;;;5.30;;
73672;SDS011;61972;19.480;-99.240;2022-10-16T04:52:01;9.80;;;5.00;;
73672;SDS011;61972;19.480;-99.240;2022-10-16T04:54:28;7.85;;;5.30;;
73672;SDS011;61972;19.480;-99.240;2022-10-16T04:56:54;6.97;;;4.90;;
73672;SDS011;61972;19.480;-99.240;2022-10-16T04:59:20;7.43;;;4.70;;
73672;SDS011;61972;19.480;-99.240;2022-10-16T05:01:47;8.95;;;5.20;;
73672;SDS011;61972;19.480;-99.240;2022-10-16T05:04:14;11.00;;;5.60;;
73672;SDS011;61972;19.480;-99.240;2022-10-16T05:06:40;12.77;;;8.35;;
73672;SDS011;61972;19.480;-99.240;2022-10-16T05:09:08;35.40;;;21.63;;
73672;SDS011;61972;19.480;-99.240;2022-10-16T05:11:35;49.60;;;29.88;;
73672;SDS011;61972;19.480;-99.240;2022-10-16T05:14:01;58.92;;;37.30;;
73672;SDS011;61972;19.480;-99.240;2022-10-16T05:16:27;33.30;;;19.77;;
73672;SDS011;61972;19.480;-99.240;2022-10-16T05:18:55;41.60;;;25.90;;
73672;SDS011;61972;19.480;-99.240;2022-10-16T05:21:21;43.75;;;29.67;;
73672;SDS011;61972;19.480;-99.240;2022-10-16T05:23:48;36.35;;;26.42;;
73672;SDS011;61972;19.480;-99.240;2022-10-16T05:26:14;37.92;;;24.63;;
73672;SDS011;61972;19.480;-99.240;2022-10-16T05:28:40;29.23;;;19.90;;
73672;SDS011;61972;19.480;-99.240;2022-10-16T05:31:07;27.02;;;18.73;;
73672;SDS011;61972;19.480;-99.240;2022-10-16T05:33:34;24.10;;;16.80;;
73672;SDS011;61972;19.480;-99.240;2022-10-16T05:36:04;23.10;;;15.25;;
73672;SDS011;61972;19.480;-99.240;2022-10-16T05:38:33;20.95;;;13.45;;
73672;SDS011;61972;19.480;-99.240;2022-10-16T05:41:00;17.50;;;11.77;;
73672;SDS011;61972;19.480;-99.240;2022-10-16T05:43:27;17.58;;;11.35;;
73672;SDS011;61972;19.480;-99.240;2022-10-16T05:45:54;14.90;;;10.43;;
73672;SDS011;61972;19.480;-99.240;2022-10-16T05:48:25;15.40;;;10.30;;
73672;SDS011;61972;19.480;-99.240;2022-10-16T05:51:01;13.55;;;9.23;;
73672;SDS011;61972;19.480;-99.240;2022-10-16T05:53:30;15.67;;;9.20;;
73672;SDS011;61972;19.480;-99.240;2022-10-16T05:55:58;10.55;;;8.55;;
73672;SDS011;61972;19.480;-99.240;2022-10-16T05:58:24;11.68;;;8.35;;
73672;SDS011;61972;19.480;-99.240;2022-10-16T06:00:55;12.30;;;8.32;;
73672;SDS011;61972;19.480;-99.240;2022-10-16T06:03:32;11.10;;;7.68;;
73672;SDS011;61972;19.480;-99.240;2022-10-16T06:05:59;11.77;;;7.53;;
73672;SDS011;61972;19.480;-99.240;2022-10-16T06:08:32;11.63;;;7.63;;
73672;SDS011;61972;19.480;-99.240;2022-10-16T06:11:02;11.13;;;7.50;;
73672;SDS011;61972;19.480;-99.240;2022-10-16T06:13:29;13.00;;;7.80;;
73672;SDS011;61972;19.480;-99.240;2022-10-16T06:15:56;13.23;;;8.15;;
73672;SDS011;61972;19.480;-99.240;2022-10-16T06:18:24;10.03;;;7.20;;
73672;SDS011;61972;19.480;-99.240;2022-10-16T06:20:51;11.02;;;7.68;;
73672;SDS011;61972;19.480;-99.240;2022-10-16T06:23:17;11.45;;;7.25;;
73672;SDS011;61972;19.480;-99.240;2022-10-16T06:25:44;9.40;;;7.38;;
73672;SDS011;61972;19.480;-99.240;2022-10-16T06:28:10;10.35;;;7.50;;
73672;SDS011;61972;19.480;-99.240;2022-10-16T06:30:36;10.47;;;7.57;;
73672;SDS011;61972;19.480;-99.240;2022-10-16T06:33:02;9.90;;;7.22;;
73672;SDS011;61972;19.480;-99.240;2022-10-16T06:35:28;13.70;;;7.40;;
73672;SDS011;61972;19.480;-99.240;2022-10-16T06:37:54;10.75;;;7.47;;
73672;SDS011;61972;19.480;-99.240;2022-10-16T06:40:20;12.75;;;7.85;;
73672;SDS011;61972;19.480;-99.240;2022-10-16T06:42:46;11.30;;;7.53;;
73672;SDS011;61972;19.480;-99.240;2022-10-16T06:45:12;12.02;;;8.13;;
73672;SDS011;61972;19.480;-99.240;2022-10-16T06:47:38;11.35;;;7.70;;
73672;SDS011;61972;19.480;-99.240;2022-10-16T06:50:05;9.57;;;7.32;;
73672;SDS011;61972;19.480;-99.240;2022-10-16T06:52:34;10.68;;;7.30;;
73672;SDS011;61972;19.480;-99.240;2022-10-16T06:55:00;11.07;;;7.77;;
73672;SDS011;61972;19.480;-99.240;2022-10-16T06:57:28;10.35;;;7.65;;
73672;SDS011;61972;19.480;-99.240;2022-10-16T06:59:54;11.05;;;7.47;;
73672;SDS011;61972;19.480;-99.240;2022-10-16T07:02:20;11.60;;;7.95;;
73672;SDS011;61972;19.480;-99.240;2022-10-16T07:04:46;11.82;;;7.70;;
73672;SDS011;61972;19.480;-99.240;2022-10-16T07:07:12;12.10;;;7.93;;
73672;SDS011;61972;19.480;-99.240;2022-10-16T07:09:39;12.18;;;8.43;;
73672;SDS011;61972;19.480;-99.240;2022-10-16T07:12:05;12.55;;;8.50;;
73672;SDS011;61972;19.480;-99.240;2022-10-16T07:14:32;10.75;;;8.13;;
73672;SDS011;61972;19.480;-99.240;2022-10-16T07:16:58;11.75;;;8.50;;
73672;SDS011;61972;19.480;-99.240;2022-10-16T07:19:24;13.10;;;8.63;;
73672;SDS011;61972;19.480;-99.240;2022-10-16T07:21:50;12.13;;;8.50;;
73672;SDS011;61972;19.480;-99.240;2022-10-16T07:24:16;10.55;;;8.45;;
73672;SDS011;61972;19.480;-99.240;2022-10-16T07:26:43;11.20;;;8.48;;
73672;SDS011;61972;19.480;-99.240;2022-10-16T07:29:12;13.07;;;9.02;;
73672;SDS011;61972;19.480;-99.240;2022-10-16T07:31:40;14.80;;;8.77;;
73672;SDS011;61972;19.480;-99.240;2022-10-16T07:34:07;13.48;;;8.98;;
73672;SDS011;61972;19.480;-99.240;2022-10-16T07:36:33;12.68;;;8.80;;
73672;SDS011;61972;19.480;-99.240;2022-10-16T07:38:59;12.25;;;8.32;;
73672;SDS011;61972;19.480;-99.240;2022-10-16T07:41:26;10.70;;;8.20;;
73672;SDS011;61972;19.480;-99.240;2022-10-16T07:43:53;14.27;;;7.60;;
73672;SDS011;61972;19.480;-99.240;2022-10-16T07:46:22;12.00;;;7.80;;
73672;SDS011;61972;19.480;-99.240;2022-10-16T07:48:48;10.43;;;7.15;;
73672;SDS011;61972;19.480;-99.240;2022-10-16T07:51:16;10.63;;;7.30;;
73672;SDS011;61972;19.480;-99.240;2022-10-16T07:53:51;11.23;;;7.28;;
73672;SDS011;61972;19.480;-99.240;2022-10-16T07:56:18;11.00;;;7.60;;
73672;SDS011;61972;19.480;-99.240;2022-10-16T07:58:45;10.50;;;6.82;;
73672;SDS011;61972;19.480;-99.240;2022-10-16T08:01:15;10.20;;;6.80;;
73672;SDS011;61972;19.480;-99.240;2022-10-16T08:03:42;11.80;;;7.00;;
73672;SDS011;61972;19.480;-99.240;2022-10-16T08:06:12;10.15;;;7.18;;
73672;SDS011;61972;19.480;-99.240;2022-10-16T08:08:39;9.50;;;6.57;;
73672;SDS011;61972;19.480;-99.240;2022-10-16T08:11:05;9.25;;;6.63;;
73672;SDS011;61972;19.480;-99.240;2022-10-16T08:13:31;9.85;;;6.60;;
73672;SDS011;61972;19.480;-99.240;2022-10-16T08:15:57;9.70;;;6.43;;
73672;SDS011;61972;19.480;-99.240;2022-10-16T08:18:24;8.52;;;6.32;;
73672;SDS011;61972;19.480;-99.240;2022-10-16T08:20:59;9.57;;;6.20;;
73672;SDS011;61972;19.480;-99.240;2022-10-16T08:23:26;10.02;;;6.68;;
73672;SDS011;61972;19.480;-99.240;2022-10-16T08:25:55;8.65;;;6.10;;
73672;SDS011;61972;19.480;-99.240;2022-10-16T08:28:27;8.50;;;6.30;;
73672;SDS011;61972;19.480;-99.240;2022-10-16T08:30:53;8.57;;;6.22;;
73672;SDS011;61972;19.480;-99.240;2022-10-16T08:33:21;9.23;;;6.27;;
73672;SDS011;61972;19.480;-99.240;2022-10-16T08:35:53;8.38;;;6.47;;
73672;SDS011;61972;19.480;-99.240;2022-10-16T08:38:20;8.68;;;6.00;;
73672;SDS011;61972;19.480;-99.240;2022-10-16T08:40:47;9.57;;;6.28;;
73672;SDS011;61972;19.480;-99.240;2022-10-16T08:43:22;8.57;;;6.13;;
73672;SDS011;61972;19.480;-99.240;2022-10-16T08:46:34;8.30;;;5.97;;
73672;SDS011;61972;19.480;-99.240;2022-10-16T08:49:19;9.77;;;6.38;;
73672;SDS011;61972;19.480;-99.240;2022-10-16T08:51:49;8.50;;;5.78;;
73672;SDS011;61972;19.480;-99.240;2022-10-16T08:54:29;8.32;;;5.70;;
73672;SDS011;61972;19.480;-99.240;2022-10-16T08:57:12;8.30;;;5.70;;
73672;SDS011;61972;19.480;-99.240;2022-10-16T08:59:42;8.63;;;5.53;;
73672;SDS011;61972;19.480;-99.240;2022-10-16T09:05:22;8.13;;;5.10;;
73672;SDS011;61972;19.480;-99.240;2022-10-16T09:10:30;7.65;;;5.75;;
73672;SDS011;61972;19.480;-99.240;2022-10-16T09:13:07;7.23;;;5.50;;
73672;SDS011;61972;19.480;-99.240;2022-10-16T09:16:12;7.63;;;5.75;;
73672;SDS011;61972;19.480;-99.240;2022-10-16T09:21:23;8.50;;;5.82;;
73672;SDS011;61972;19.480;-99.240;2022-10-16T09:23:59;7.82;;;5.55;;
73672;SDS011;61972;19.480;-99.240;2022-10-16T09:26:33;7.27;;;5.43;;
73672;SDS011;61972;19.480;-99.240;2022-10-16T09:28:59;7.60;;;5.50;;
73672;SDS011;61972;19.480;-99.240;2022-10-16T09:31:25;7.45;;;5.00;;
73672;SDS011;61972;19.480;-99.240;2022-10-16T09:33:55;10.35;;;5.57;;
73672;SDS011;61972;19.480;-99.240;2022-10-16T09:36:25;7.82;;;5.80;;
73672;SDS011;61972;19.480;-99.240;2022-10-16T09:39:03;7.10;;;5.10;;
73672;SDS011;61972;19.480;-99.240;2022-10-16T09:41:34;6.43;;;5.03;;
73672;SDS011;61972;19.480;-99.240;2022-10-16T09:44:02;7.07;;;5.10;;
73672;SDS011;61972;19.480;-99.240;2022-10-16T09:46:36;8.48;;;5.38;;
73672;SDS011;61972;19.480;-99.240;2022-10-16T09:49:05;6.70;;;5.07;;
73672;SDS011;61972;19.480;-99.240;2022-10-16T09:51:44;7.57;;;5.57;;
73672;SDS011;61972;19.480;-99.240;2022-10-16T09:56:37;6.53;;;5.10;;
73672;SDS011;61972;19.480;-99.240;2022-10-16T09:59:14;7.03;;;5.25;;
73672;SDS011;61972;19.480;-99.240;2022-10-16T10:01:48;6.57;;;4.70;;
73672;SDS011;61972;19.480;-99.240;2022-10-16T10:04:16;7.00;;;5.23;;
73672;SDS011;61972;19.480;-99.240;2022-10-16T10:09:21;7.03;;;5.32;;
73672;SDS011;61972;19.480;-99.240;2022-10-16T10:11:52;7.93;;;4.93;;
73672;SDS011;61972;19.480;-99.240;2022-10-16T10:16:48;6.77;;;4.87;;
73672;SDS011;61972;19.480;-99.240;2022-10-16T10:21:42;6.63;;;4.60;;
73672;SDS011;61972;19.480;-99.240;2022-10-16T10:24:13;6.47;;;4.72;;
73672;SDS011;61972;19.480;-99.240;2022-10-16T10:26:45;9.45;;;5.10;;
73672;SDS011;61972;19.480;-99.240;2022-10-16T10:29:35;6.67;;;5.00;;
73672;SDS011;61972;19.480;-99.240;2022-10-16T10:43:18;6.00;;;4.50;;
73672;SDS011;61972;19.480;-99.240;2022-10-16T10:49:12;8.98;;;5.82;;
73672;SDS011;61972;19.480;-99.240;2022-10-16T11:05:34;8.18;;;6.00;;
73672;SDS011;61972;19.480;-99.240;2022-10-16T11:08:13;7.88;;;6.07;;
73672;SDS011;61972;19.480;-99.240;2022-10-16T11:15:57;8.85;;;5.45;;
73672;SDS011;61972;19.480;-99.240;2022-10-16T11:21:08;8.15;;;5.30;;
73672;SDS011;61972;19.480;-99.240;2022-10-16T11:23:58;8.20;;;5.43;;
73672;SDS011;61972;19.480;-99.240;2022-10-16T11:26:44;7.35;;;5.40;;
73672;SDS011;61972;19.480;-99.240;2022-10-16T11:29:15;8.25;;;5.32;;
73672;SDS011;61972;19.480;-99.240;2022-10-16T11:31:49;7.30;;;4.95;;
73672;SDS011;61972;19.480;-99.240;2022-10-16T11:34:32;8.77;;;5.65;;
73672;SDS011;61972;19.480;-99.240;2022-10-16T11:37:02;6.87;;;5.40;;
73672;SDS011;61972;19.480;-99.240;2022-10-16T11:39:30;8.23;;;5.50;;
73672;SDS011;61972;19.480;-99.240;2022-10-16T11:50:45;7.17;;;5.10;;
73672;SDS011;61972;19.480;-99.240;2022-10-16T11:55:56;11.15;;;5.07;;
73672;SDS011;61972;19.480;-99.240;2022-10-16T11:58:32;11.77;;;5.32;;
73672;SDS011;61972;19.480;-99.240;2022-10-16T12:01:22;8.38;;;5.38;;
73672;SDS011;61972;19.480;-99.240;2022-10-16T12:04:02;9.83;;;5.50;;
73672;SDS011;61972;19.480;-99.240;2022-10-16T12:09:03;6.97;;;5.18;;
73672;SDS011;61972;19.480;-99.240;2022-10-16T12:16:51;8.73;;;5.43;;
73672;SDS011;61972;19.480;-99.240;2022-10-16T12:19:23;7.68;;;5.35;;
73672;SDS011;61972;19.480;-99.240;2022-10-16T12:21:51;7.00;;;4.75;;
73672;SDS011;61972;19.480;-99.240;2022-10-16T12:24:21;9.40;;;5.88;;
73672;SDS011;61972;19.480;-99.240;2022-10-16T12:26:47;8.25;;;5.13;;
73672;SDS011;61972;19.480;-99.240;2022-10-16T12:29:23;8.30;;;5.57;;
73672;SDS011;61972;19.480;-99.240;2022-10-16T12:32:04;7.57;;;5.45;;
73672;SDS011;61972;19.480;-99.240;2022-10-16T12:34:44;7.40;;;6.10;;
73672;SDS011;61972;19.480;-99.240;2022-10-16T12:37:14;8.75;;;5.85;;
73672;SDS011;61972;19.480;-99.240;2022-10-16T12:39:46;7.50;;;5.65;;
73672;SDS011;61972;19.480;-99.240;2022-10-16T12:42:33;7.43;;;5.47;;
73672;SDS011;61972;19.480;-99.240;2022-10-16T12:45:00;7.90;;;5.32;;
73672;SDS011;61972;19.480;-99.240;2022-10-16T12:49:56;9.82;;;4.88;;
73672;SDS011;61972;19.480;-99.240;2022-10-16T12:52:43;7.82;;;5.65;;
73672;SDS011;61972;19.480;-99.240;2022-10-16T12:55:16;8.13;;;5.40;;
73672;SDS011;61972;19.480;-99.240;2022-10-16T13:08:56;10.27;;;5.37;;
73672;SDS011;61972;19.480;-99.240;2022-10-16T13:27:35;8.15;;;5.60;;
73672;SDS011;61972;19.480;-99.240;2022-10-16T13:30:17;8.43;;;5.75;;
73672;SDS011;61972;19.480;-99.240;2022-10-16T13:32:50;7.43;;;5.43;;
73672;SDS011;61972;19.480;-99.240;2022-10-16T13:35:26;7.20;;;5.40;;
73672;SDS011;61972;19.480;-99.240;2022-10-16T13:38:04;7.95;;;5.70;;
73672;SDS011;61972;19.480;-99.240;2022-10-16T13:40:37;7.55;;;5.72;;
73672;SDS011;61972;19.480;-99.240;2022-10-16T13:43:15;8.55;;;5.57;;
73672;SDS011;61972;19.480;-99.240;2022-10-16T13:45:52;7.15;;;5.40;;
73672;SDS011;61972;19.480;-99.240;2022-10-16T13:48:21;8.57;;;5.77;;
73672;SDS011;61972;19.480;-99.240;2022-10-16T13:50:57;6.55;;;5.32;;
73672;SDS011;61972;19.480;-99.240;2022-10-16T13:53:44;7.82;;;5.20;;
73672;SDS011;61972;19.480;-99.240;2022-10-16T13:56:15;7.03;;;5.35;;
73672;SDS011;61972;19.480;-99.240;2022-10-16T13:58:57;7.63;;;5.63;;
73672;SDS011;61972;19.480;-99.240;2022-10-16T14:01:34;8.17;;;5.70;;
73672;SDS011;61972;19.480;-99.240;2022-10-16T14:04:10;7.75;;;5.20;;
73672;SDS011;61972;19.480;-99.240;2022-10-16T14:06:43;7.13;;;5.28;;
73672;SDS011;61972;19.480;-99.240;2022-10-16T14:11:46;8.00;;;5.50;;
73672;SDS011;61972;19.480;-99.240;2022-10-16T14:14:17;7.17;;;5.20;;
73672;SDS011;61972;19.480;-99.240;2022-10-16T14:16:44;7.95;;;5.65;;
73672;SDS011;61972;19.480;-99.240;2022-10-16T14:19:27;7.35;;;5.40;;
73672;SDS011;61972;19.480;-99.240;2022-10-16T14:21:55;9.25;;;5.60;;
73672;SDS011;61972;19.480;-99.240;2022-10-16T14:24:42;9.90;;;5.50;;
73672;SDS011;61972;19.480;-99.240;2022-10-16T14:32:52;9.00;;;5.80;;
73672;SDS011;61972;19.480;-99.240;2022-10-16T14:35:24;8.73;;;5.47;;
73672;SDS011;61972;19.480;-99.240;2022-10-16T14:37:55;7.72;;;5.47;;
73672;SDS011;61972;19.480;-99.240;2022-10-16T14:40:23;9.37;;;6.20;;
73672;SDS011;61972;19.480;-99.240;2022-10-16T14:42:54;7.32;;;5.38;;
73672;SDS011;61972;19.480;-99.240;2022-10-16T14:45:21;8.15;;;5.50;;
73672;SDS011;61972;19.480;-99.240;2022-10-16T14:47:55;8.20;;;5.78;;
73672;SDS011;61972;19.480;-99.240;2022-10-16T14:50:23;7.55;;;5.70;;
73672;SDS011;61972;19.480;-99.240;2022-10-16T14:52:49;8.40;;;5.77;;
73672;SDS011;61972;19.480;-99.240;2022-10-16T14:55:16;9.57;;;5.68;;
73672;SDS011;61972;19.480;-99.240;2022-10-16T14:57:42;14.25;;;6.20;;
73672;SDS011;61972;19.480;-99.240;2022-10-16T15:00:15;9.73;;;6.05;;
73672;SDS011;61972;19.480;-99.240;2022-10-16T15:02:44;8.93;;;5.90;;
73672;SDS011;61972;19.480;-99.240;2022-10-16T15:05:18;7.70;;;5.77;;
73672;SDS011;61972;19.480;-99.240;2022-10-16T15:07:52;11.80;;;6.10;;
73672;SDS011;61972;19.480;-99.240;2022-10-16T15:10:19;10.75;;;6.15;;
73672;SDS011;61972;19.480;-99.240;2022-10-16T15:12:47;9.10;;;6.05;;
73672;SDS011;61972;19.480;-99.240;2022-10-16T15:18:02;7.90;;;5.93;;
73672;SDS011;61972;19.480;-99.240;2022-10-16T15:20:32;8.63;;;6.07;;
73672;SDS011;61972;19.480;-99.240;2022-10-16T15:23:03;8.23;;;5.90;;
73672;SDS011;61972;19.480;-99.240;2022-10-16T15:25:38;9.68;;;5.82;;
73672;SDS011;61972;19.480;-99.240;2022-10-16T15:28:15;9.13;;;6.22;;
73672;SDS011;61972;19.480;-99.240;2022-10-16T15:30:42;8.10;;;5.83;;
73672;SDS011;61972;19.480;-99.240;2022-10-16T15:33:13;8.85;;;6.03;;
73672;SDS011;61972;19.480;-99.240;2022-10-16T15:35:41;9.70;;;5.97;;
73672;SDS011;61972;19.480;-99.240;2022-10-16T15:38:10;8.45;;;6.15;;
73672;SDS011;61972;19.480;-99.240;2022-10-16T15:40:37;8.75;;;6.20;;
73672;SDS011;61972;19.480;-99.240;2022-10-16T15:43:05;7.67;;;5.80;;
73672;SDS011;61972;19.480;-99.240;2022-10-16T15:45:31;11.02;;;6.15;;
73672;SDS011;61972;19.480;-99.240;2022-10-16T15:47:57;8.25;;;6.13;;
73672;SDS011;61972;19.480;-99.240;2022-10-16T15:50:23;8.70;;;6.10;;
73672;SDS011;61972;19.480;-99.240;2022-10-16T15:52:49;8.80;;;6.32;;
73672;SDS011;61972;19.480;-99.240;2022-10-16T15:55:16;10.63;;;6.20;;
73672;SDS011;61972;19.480;-99.240;2022-10-16T15:57:44;10.18;;;5.78;;
73672;SDS011;61972;19.480;-99.240;2022-10-16T16:00:12;9.65;;;6.18;;
73672;SDS011;61972;19.480;-99.240;2022-10-16T16:02:41;7.38;;;5.70;;
73672;SDS011;61972;19.480;-99.240;2022-10-16T16:05:08;8.88;;;6.32;;
73672;SDS011;61972;19.480;-99.240;2022-10-16T16:07:36;9.00;;;6.03;;
73672;SDS011;61972;19.480;-99.240;2022-10-16T16:10:03;9.70;;;6.30;;
73672;SDS011;61972;19.480;-99.240;2022-10-16T16:12:32;8.68;;;6.20;;
73672;SDS011;61972;19.480;-99.240;2022-10-16T16:14:59;9.32;;;6.05;;
73672;SDS011;61972;19.480;-99.240;2022-10-16T16:17:25;8.10;;;6.30;;
73672;SDS011;61972;19.480;-99.240;2022-10-16T16:19:51;9.57;;;6.33;;
73672;SDS011;61972;19.480;-99.240;2022-10-16T16:22:17;9.18;;;6.20;;
73672;SDS011;61972;19.480;-99.240;2022-10-16T16:24:43;8.75;;;6.40;;
73672;SDS011;61972;19.480;-99.240;2022-10-16T16:27:09;8.80;;;6.28;;
73672;SDS011;61972;19.480;-99.240;2022-10-16T16:29:36;9.20;;;6.28;;
73672;SDS011;61972;19.480;-99.240;2022-10-16T16:32:02;10.17;;;6.60;;
73672;SDS011;61972;19.480;-99.240;2022-10-16T16:34:28;8.50;;;5.90;;
73672;SDS011;61972;19.480;-99.240;2022-10-16T16:36:55;9.02;;;5.85;;
73672;SDS011;61972;19.480;-99.240;2022-10-16T16:39:22;8.57;;;6.22;;
73672;SDS011;61972;19.480;-99.240;2022-10-16T16:41:51;9.55;;;6.63;;
73672;SDS011;61972;19.480;-99.240;2022-10-16T16:44:17;8.73;;;6.30;;
73672;SDS011;61972;19.480;-99.240;2022-10-16T16:46:43;10.57;;;6.55;;
73672;SDS011;61972;19.480;-99.240;2022-10-16T16:49:11;8.02;;;6.28;;